createdAt,value
2022-08-07T00:01:44.002Z,102703.69
2022-08-07T00:04:11.340Z,102698.28
2022-08-07T00:06:51.632Z,102700.91
2022-08-07T00:09:22.309Z,102699.06
2022-08-07T00:11:56.012Z,102704.28
2022-08-07T00:14:31.279Z,102715.66
2022-08-07T00:17:03.662Z,102713.91
2022-08-07T00:20:01.308Z,102713.91
2022-08-07T00:22:35.070Z,102712.13
2022-08-07T00:25:07.063Z,102705.94
2022-08-07T00:27:52.869Z,102704.16
2022-08-07T00:30:27.296Z,102703.22
2022-08-07T00:32:59.025Z,102704.97
2022-08-07T00:35:29.559Z,102695.22
2022-08-07T00:37:59.002Z,102692.53
2022-08-07T00:40:36.257Z,102690.75
2022-08-07T00:43:12.833Z,102690.75
2022-08-07T00:45:58.371Z,102691.63
2022-08-07T00:48:32.173Z,102695.97
2022-08-07T00:51:02.602Z,102686.28
2022-08-07T00:53:38.551Z,102690.66
2022-08-07T00:56:19.285Z,102693.25
2022-08-07T00:58:49.680Z,102689.69
2022-08-07T01:01:20.944Z,102696.72
2022-08-07T01:03:55.449Z,102693.22
2022-08-07T01:06:27.688Z,102694.91
2022-08-07T01:08:58.340Z,102692.22
2022-08-07T01:12:09.831Z,102695.72
2022-08-07T01:14:16.688Z,102695.69
2022-08-07T01:16:47.382Z,102694.78
2022-08-07T01:19:19.981Z,102691.28
2022-08-07T01:21:55.147Z,102693.91
2022-08-07T01:24:24.386Z,102689.47
2022-08-07T01:26:53.948Z,102697.38
2022-08-07T01:29:27.634Z,102699.16
2022-08-07T01:31:59.903Z,102695.63
2022-08-07T01:34:31.577Z,102699.09
2022-08-07T01:37:02.278Z,102692.06
2022-08-07T01:39:41.184Z,102690.28
2022-08-07T01:42:39.433Z,102694.66
2022-08-07T01:45:15.800Z,102696.41
2022-08-07T01:48:19.928Z,102700.78
2022-08-07T01:50:40.214Z,102690.19
2022-08-07T01:53:21.077Z,102694.53
2022-08-07T01:55:54.322Z,102681.34
2022-08-07T01:58:29.233Z,102691.81
2022-08-07T02:01:09.937Z,102684.78
2022-08-07T02:03:59.522Z,102686.44
2022-08-07T02:06:32.509Z,102684.66
2022-08-07T02:09:06.323Z,102689.00
2022-08-07T02:12:02.753Z,102688.03
2022-08-07T02:14:35.685Z,102681.78
2022-08-07T02:17:06.091Z,102672.09
2022-08-07T02:20:04.501Z,102672.91
2022-08-07T02:22:26.217Z,102668.44
2022-08-07T02:24:58.909Z,102667.56
2022-08-07T02:27:34.223Z,102664.00
2022-08-07T02:30:07.385Z,102658.66
2022-08-07T02:32:39.582Z,102652.44
2022-08-07T02:36:29.913Z,102654.16
2022-08-07T02:38:17.349Z,102654.94
2022-08-07T02:40:55.672Z,102650.47
2022-08-07T02:43:26.474Z,102647.75
2022-08-07T02:45:58.252Z,102643.31
2022-08-07T02:48:28.484Z,102652.03
2022-08-07T02:50:58.113Z,102642.34
2022-08-07T02:53:38.255Z,102642.34
2022-08-07T02:56:21.051Z,102646.69
2022-08-07T02:58:55.106Z,102650.13
2022-08-07T03:01:36.106Z,102647.47
2022-08-07T03:04:12.451Z,102646.53
2022-08-07T03:06:46.000Z,102642.19
2022-08-07T03:09:43.377Z,102645.69
2022-08-07T03:12:14.198Z,102644.78
2022-08-07T03:14:52.748Z,102648.28
2022-08-07T03:17:22.070Z,102643.00
2022-08-07T03:19:54.834Z,102642.09
2022-08-07T03:22:29.579Z,102643.00
2022-08-07T03:24:59.908Z,102641.22
2022-08-07T03:27:42.222Z,102644.72
2022-08-07T03:30:19.246Z,102648.19
2022-08-07T03:32:58.925Z,102649.06
2022-08-07T03:35:43.785Z,102639.38
2022-08-07T03:38:20.832Z,102642.81
2022-08-07T03:40:57.503Z,102641.94
2022-08-07T03:43:32.219Z,102636.63
2022-08-07T03:46:03.700Z,102641.03
2022-08-07T03:48:45.591Z,102638.38
2022-08-07T03:51:30.856Z,102638.34
2022-08-07T03:54:35.336Z,102644.50
2022-08-07T03:57:07.133Z,102633.91
2022-08-07T03:59:46.844Z,102642.69
2022-08-07T04:02:27.363Z,102644.38
2022-08-07T04:04:55.754Z,102640.97
2022-08-07T04:07:25.768Z,102644.44
2022-08-07T04:10:05.612Z,102644.38
2022-08-07T04:12:35.234Z,102644.38
2022-08-07T04:15:05.715Z,102638.22
2022-08-07T04:18:57.147Z,102646.13
2022-08-07T04:20:22.644Z,102645.22
2022-08-07T04:23:01.490Z,102647.94
2022-08-07T04:25:31.525Z,102658.50
2022-08-07T04:28:08.128Z,102651.53
2022-08-07T04:30:43.623Z,102649.00
2022-08-07T04:33:25.781Z,102650.88
2022-08-07T04:35:54.573Z,102648.34
2022-08-07T04:38:23.499Z,102654.53
2022-08-07T04:40:56.519Z,102658.19
2022-08-07T04:44:13.090Z,102659.16
2022-08-07T04:46:35.972Z,102657.50
2022-08-07T04:49:37.693Z,102654.16
2022-08-07T04:52:18.590Z,102654.25
2022-08-07T04:54:55.330Z,102650.00
2022-08-07T04:58:25.681Z,102658.03
2022-08-07T05:00:35.005Z,102653.84
2022-08-07T05:04:00.500Z,102652.22
2022-08-07T05:06:19.752Z,102649.75
2022-08-07T05:09:00.894Z,102647.25
2022-08-07T05:11:57.691Z,102644.75
2022-08-07T05:14:55.284Z,102652.75
2022-08-07T05:17:51.696Z,102643.19
2022-08-07T05:20:15.132Z,102647.66
2022-08-07T05:22:47.582Z,102660.13
2022-08-07T05:25:26.259Z,102665.56
2022-08-07T05:28:20.286Z,102661.31
2022-08-07T05:30:52.672Z,102665.06
2022-08-07T05:33:22.427Z,102671.47
2022-08-07T05:35:53.051Z,102668.13
2022-08-07T05:39:01.045Z,102672.69
2022-08-07T05:41:15.635Z,102668.50
2022-08-07T05:44:01.226Z,102664.31
2022-08-07T05:46:37.595Z,102661.91
2022-08-07T05:49:12.350Z,102657.69
2022-08-07T05:51:46.631Z,102654.31
2022-08-07T05:54:44.182Z,102658.00
2022-08-07T05:57:06.440Z,102651.16
2022-08-07T05:59:57.592Z,102649.50
2022-08-07T06:02:30.754Z,102657.59
2022-08-07T06:05:04.577Z,102658.63
2022-08-07T06:08:12.339Z,102652.56
2022-08-07T06:10:25.297Z,102657.97
2022-08-07T06:12:54.493Z,102664.19
2022-08-07T06:15:39.479Z,102660.81
2022-08-07T06:18:13.762Z,102659.16
2022-08-07T06:20:50.955Z,102658.31
2022-08-07T06:24:37.148Z,102664.56
2022-08-07T06:26:27.529Z,102661.09
2022-08-07T06:29:00.035Z,102666.44
2022-08-07T06:31:49.354Z,102664.72
2022-08-07T06:34:19.587Z,102668.28
2022-08-07T06:36:48.154Z,102671.84
2022-08-07T06:40:16.427Z,102672.78
2022-08-07T06:42:16.575Z,102678.09
2022-08-07T06:44:51.253Z,102677.22
2022-08-07T06:47:21.126Z,102670.16
2022-08-07T06:49:50.931Z,102678.13
2022-08-07T06:52:31.792Z,102677.22
2022-08-07T06:55:34.501Z,102675.47
2022-08-07T06:58:02.687Z,102684.31
2022-08-07T07:00:36.657Z,102680.78
2022-08-07T07:03:10.592Z,102683.41
2022-08-07T07:06:03.982Z,102681.63
2022-08-07T07:08:33.222Z,102680.69
2022-08-07T07:11:13.552Z,102682.41
2022-08-07T07:13:58.424Z,102678.84
2022-08-07T07:16:45.081Z,102671.66
2022-08-07T07:19:55.547Z,102666.31
2022-08-07T07:22:36.193Z,102675.13
2022-08-07T07:26:31.280Z,102666.25
2022-08-07T07:28:03.168Z,102667.09
2022-08-07T07:30:40.756Z,102662.59
2022-08-07T07:33:12.396Z,102667.84
2022-08-07T07:36:04.042Z,102671.31
2022-08-07T07:38:36.094Z,102675.72
2022-08-07T07:41:08.664Z,102665.97
2022-08-07T07:44:14.314Z,102662.44
2022-08-07T07:46:53.515Z,102658.84
2022-08-07T07:50:33.877Z,102653.38
2022-08-07T07:52:16.400Z,102651.47
2022-08-07T07:54:51.515Z,102651.34
2022-08-07T07:57:52.476Z,102653.00
2022-08-07T08:00:29.892Z,102653.78
2022-08-07T08:03:08.675Z,102652.72
2022-08-07T08:05:55.098Z,102649.09
2022-08-07T08:08:34.764Z,102652.63
2022-08-07T08:11:08.220Z,102658.75
2022-08-07T08:13:53.032Z,102654.25
2022-08-07T08:16:29.590Z,102654.09
2022-08-07T08:19:09.838Z,102638.84
2022-08-07T08:22:07.835Z,102650.28
2022-08-07T08:25:18.155Z,102636.75
2022-08-07T08:27:56.215Z,102638.47
2022-08-07T08:30:28.958Z,102634.69
2022-08-07T08:33:04.235Z,102636.13
2022-08-07T08:35:39.386Z,102632.34
2022-08-07T08:38:18.419Z,102632.13
2022-08-07T08:40:55.950Z,102636.44
2022-08-07T08:43:42.804Z,102631.09
2022-08-07T08:46:38.174Z,102622.16
2022-08-07T08:49:18.716Z,102619.38
2022-08-07T08:52:16.480Z,102620.94
2022-08-07T08:54:55.171Z,102620.63
2022-08-07T08:57:40.109Z,102615.19
2022-08-07T09:00:13.953Z,102614.16
2022-08-07T09:02:55.425Z,102607.97
2022-08-07T09:05:37.305Z,102612.34
2022-08-07T09:08:28.253Z,102613.13
2022-08-07T09:11:24.809Z,102610.44
2022-08-07T09:14:17.991Z,102611.19
2022-08-07T09:17:02.076Z,102613.69
2022-08-07T09:19:53.575Z,102610.97
2022-08-07T09:24:33.795Z,102621.56
2022-08-07T09:25:55.115Z,102619.53
2022-08-07T09:30:06.492Z,102616.56
2022-08-07T09:31:39.439Z,102616.31
2022-08-07T09:34:22.090Z,102604.66
2022-08-07T09:37:03.666Z,102607.34
2022-08-07T09:39:53.953Z,102608.09
2022-08-07T09:42:41.929Z,102614.88
2022-08-07T09:47:26.284Z,102607.34
2022-08-07T09:48:43.952Z,102611.44
2022-08-07T09:52:10.241Z,102614.28
2022-08-07T09:54:40.717Z,102613.63
2022-08-07T09:57:47.088Z,102612.16
2022-08-07T10:00:18.922Z,102598.34
2022-08-07T10:04:05.051Z,102590.50
2022-08-07T10:06:40.413Z,102601.31
2022-08-07T10:10:00.768Z,102590.78
2022-08-07T10:12:54.158Z,102586.47
2022-08-07T10:15:51.090Z,102594.00
2022-08-07T10:18:53.718Z,102577.56
2022-08-07T10:22:14.605Z,102569.53
2022-08-07T10:24:50.884Z,102572.22
2022-08-07T10:27:46.370Z,102568.91
2022-08-07T10:30:17.919Z,102563.09
2022-08-07T10:34:05.706Z,102563.78
2022-08-07T10:36:30.189Z,102560.94
2022-08-07T10:39:17.277Z,102562.63
2022-08-07T10:42:02.985Z,102560.75
2022-08-07T10:44:50.124Z,102563.75
2022-08-07T10:47:53.849Z,102554.44
2022-08-07T10:50:29.980Z,102546.16
2022-08-07T10:53:21.427Z,102552.22
2022-08-07T10:56:05.195Z,102559.41
2022-08-07T10:59:08.189Z,102544.81
2022-08-07T11:01:52.038Z,102538.81
2022-08-07T11:04:53.943Z,102532.00
2022-08-07T11:07:58.551Z,102521.28
2022-08-07T11:10:31.264Z,102515.78
2022-08-07T11:14:42.200Z,102515.78
2022-08-07T11:16:19.497Z,102517.28
2022-08-07T11:18:53.050Z,102507.31
2022-08-07T11:21:32.678Z,102500.91
2022-08-07T11:24:18.975Z,102506.44
2022-08-07T11:26:53.891Z,102506.97
2022-08-07T11:29:42.613Z,102505.25
2022-08-07T11:32:26.914Z,102499.97
2022-08-07T11:35:03.049Z,102507.22
2022-08-07T11:38:12.817Z,102497.78
2022-08-07T11:40:57.447Z,102501.69
2022-08-07T11:43:54.429Z,102497.25
2022-08-07T11:46:40.794Z,102490.94
2022-08-07T11:50:25.529Z,102486.31
2022-08-07T11:52:46.639Z,102482.41
2022-08-07T11:56:09.273Z,102482.47
2022-08-07T11:58:42.615Z,102485.03
2022-08-07T12:01:59.777Z,102491.63
2022-08-07T12:04:47.401Z,102474.25
2022-08-07T12:07:27.497Z,102475.38
2022-08-07T12:10:16.260Z,102480.75
2022-08-07T12:12:51.534Z,102477.31
2022-08-07T12:15:57.927Z,102473.25
2022-08-07T12:18:22.018Z,102472.75
2022-08-07T12:21:20.990Z,102473.25
2022-08-07T12:24:36.916Z,102477.97
2022-08-07T12:27:14.965Z,102474.28
2022-08-07T12:29:53.031Z,102467.59
2022-08-07T12:32:32.221Z,102474.91
2022-08-07T12:35:05.603Z,102470.84
2022-08-07T12:38:09.435Z,102465.78
2022-08-07T12:40:47.581Z,102462.22
2022-08-07T12:44:01.460Z,102458.44
2022-08-07T12:46:32.458Z,102463.44
2022-08-07T12:49:39.884Z,102467.56
2022-08-07T12:52:13.717Z,102444.06
2022-08-07T12:54:59.026Z,102438.66
2022-08-07T12:57:59.198Z,102447.91
2022-08-07T13:00:32.918Z,102446.38
2022-08-07T13:04:02.364Z,102440.09
2022-08-07T13:06:37.296Z,102445.16
2022-08-07T13:10:19.283Z,102448.97
2022-08-07T13:12:53.212Z,102440.88
2022-08-07T13:15:35.242Z,102453.53
2022-08-07T13:18:26.498Z,102448.41
2022-08-07T13:21:04.139Z,102443.31
2022-08-07T13:24:01.195Z,102439.88
2022-08-07T13:26:44.568Z,102438.63
2022-08-07T13:29:21.760Z,102433.69
2022-08-07T13:31:57.801Z,102440.88
2022-08-07T13:34:48.517Z,102449.03
2022-08-07T13:37:31.695Z,102445.59
2022-08-07T13:40:33.906Z,102449.19
2022-08-07T13:43:11.817Z,102432.72
2022-08-07T13:46:21.852Z,102431.41
2022-08-07T13:48:38.786Z,102424.84
2022-08-07T13:51:28.581Z,102432.97
2022-08-07T13:54:06.097Z,102428.56
2022-08-07T13:56:41.369Z,102422.25
2022-08-07T13:59:27.154Z,102419.09
2022-08-07T14:02:07.552Z,102419.06
2022-08-07T14:04:54.336Z,102422.09
2022-08-07T14:07:28.261Z,102414.00
2022-08-07T14:10:15.632Z,102408.69
2022-08-07T14:12:55.700Z,102414.22
2022-08-07T14:15:41.042Z,102412.59
2022-08-07T14:18:29.021Z,102416.72
2022-08-07T14:21:20.759Z,102406.91
2022-08-07T14:24:06.289Z,102409.13
2022-08-07T14:26:50.724Z,102410.59
2022-08-07T14:30:08.006Z,102407.13
2022-08-07T14:32:15.072Z,102404.28
2022-08-07T14:34:47.085Z,102406.97
2022-08-07T14:37:18.554Z,102408.91
2022-08-07T14:40:15.987Z,102406.41
2022-08-07T14:43:55.112Z,102407.53
2022-08-07T14:51:16.296Z,102403.31
2022-08-07T14:54:08.573Z,102401.97
2022-08-07T14:56:40.571Z,102388.88
2022-08-07T14:59:13.660Z,102394.66
2022-08-07T15:02:33.037Z,102391.00
2022-08-07T15:05:02.242Z,102384.88
2022-08-07T15:07:50.945Z,102395.41
2022-08-07T15:10:26.084Z,102384.44
2022-08-07T15:12:59.390Z,102396.88
2022-08-07T15:15:39.002Z,102390.63
2022-08-07T15:25:15.912Z,102381.00
2022-08-07T15:27:05.232Z,102386.22
2022-08-07T15:30:06.636Z,102378.06
2022-08-07T15:36:01.295Z,102376.53
2022-08-07T15:41:24.481Z,102365.28
2022-08-07T15:44:03.956Z,102370.28
2022-08-07T15:50:05.326Z,102373.75
2022-08-07T15:52:30.800Z,102364.78
2022-08-07T15:55:08.852Z,102364.78
2022-08-07T15:57:49.160Z,102362.00
2022-08-07T16:00:31.288Z,102358.94
2022-08-07T16:03:06.402Z,102362.16
2022-08-07T16:05:42.515Z,102368.59
2022-08-07T16:08:31.866Z,102366.31
2022-08-07T16:11:26.327Z,102363.75
2022-08-07T16:14:10.601Z,102371.63
2022-08-07T16:17:01.004Z,102360.00
2022-08-07T16:20:03.924Z,102361.38
2022-08-07T16:23:05.439Z,102358.34
2022-08-07T16:25:56.609Z,102358.00
2022-08-07T16:30:06.461Z,102353.69
2022-08-07T16:32:03.728Z,102357.09
2022-08-07T16:34:45.282Z,102345.84
2022-08-07T16:38:09.353Z,102349.03
2022-08-07T16:41:18.985Z,102347.63
2022-08-07T16:45:14.380Z,102342.53
2022-08-07T16:48:27.832Z,102344.81
2022-08-07T16:52:01.489Z,102342.38
2022-08-07T16:54:33.048Z,102346.53
2022-08-07T16:58:01.996Z,102340.50
2022-08-07T17:00:30.155Z,102342.53
2022-08-07T17:03:59.498Z,102341.88
2022-08-07T17:06:44.774Z,102336.88
2022-08-07T17:10:05.158Z,102336.44
2022-08-07T17:12:33.833Z,102343.84
2022-08-07T17:15:18.299Z,102343.81
2022-08-07T17:18:11.535Z,102340.84
2022-08-07T17:20:42.626Z,102338.66
2022-08-07T17:23:38.290Z,102332.91
2022-08-07T17:26:24.025Z,102341.03
2022-08-07T17:30:12.598Z,102334.75
2022-08-07T17:32:31.404Z,102332.75
2022-08-07T17:35:51.817Z,102329.53
2022-08-07T17:38:34.418Z,102335.47
2022-08-07T17:42:01.057Z,102335.03
2022-08-07T17:44:06.656Z,102341.91
2022-08-07T17:47:00.610Z,102328.31
2022-08-07T17:49:45.249Z,102338.88
2022-08-07T17:52:39.592Z,102336.88
2022-08-07T17:55:13.912Z,102338.34
2022-08-07T17:57:58.625Z,102340.84
2022-08-07T18:00:48.440Z,102340.72
2022-08-07T18:03:26.563Z,102336.28
2022-08-07T18:06:06.630Z,102338.84
2022-08-07T18:09:01.828Z,102343.63
2022-08-07T18:12:17.869Z,102345.06
2022-08-07T18:14:46.216Z,102338.97
2022-08-07T18:18:44.695Z,102347.69
2022-08-07T18:21:08.514Z,102349.19
2022-08-07T18:23:43.321Z,102352.59
2022-08-07T18:26:23.518Z,102352.84
2022-08-07T18:30:04.539Z,102356.41
2022-08-07T18:32:16.755Z,102353.44
2022-08-07T18:35:15.678Z,102358.47
2022-08-07T18:38:59.169Z,102365.69
2022-08-07T18:41:16.778Z,102366.09
2022-08-07T18:44:11.567Z,102370.25
2022-08-07T18:46:48.271Z,102374.88
2022-08-07T18:50:30.968Z,102382.44
2022-08-07T18:53:03.005Z,102381.44
2022-08-07T18:55:56.253Z,102383.25
2022-08-07T18:58:39.411Z,102390.88
2022-08-07T19:02:33.160Z,102393.81
2022-08-07T19:04:39.658Z,102400.13
2022-08-07T19:07:34.915Z,102404.56
2022-08-07T19:10:14.806Z,102407.91
2022-08-07T19:13:12.127Z,102405.81
2022-08-07T19:17:05.086Z,102411.78
2022-08-07T19:19:00.478Z,102416.75
2022-08-07T19:21:54.884Z,102412.72
2022-08-07T19:24:37.246Z,102420.28
2022-08-07T19:28:29.979Z,102425.06
2022-08-07T19:30:55.312Z,102429.81
2022-08-07T19:33:08.376Z,102441.72
2022-08-07T19:35:45.427Z,102441.09
2022-08-07T19:38:18.381Z,102442.16
2022-08-07T19:40:51.855Z,102453.94
2022-08-07T19:43:49.290Z,102456.78
2022-08-07T19:46:18.871Z,102460.50
2022-08-07T19:48:57.298Z,102455.31
2022-08-07T19:51:51.872Z,102455.50
2022-08-07T19:54:31.865Z,102457.44
2022-08-07T19:57:51.657Z,102454.94
2022-08-07T19:59:57.725Z,102457.78
2022-08-07T20:02:31.393Z,102453.53
2022-08-07T20:05:07.890Z,102465.13
2022-08-07T20:07:46.399Z,102459.97
2022-08-07T20:10:35.178Z,102464.53
2022-08-07T20:13:22.694Z,102462.03
2022-08-07T20:15:57.540Z,102459.47
2022-08-07T20:18:32.444Z,102470.16
2022-08-07T20:21:21.593Z,102464.94
2022-08-07T20:24:00.317Z,102465.94
2022-08-07T20:26:32.833Z,102460.69
2022-08-07T20:29:46.852Z,102466.94
2022-08-07T20:32:11.573Z,102462.59
2022-08-07T20:34:53.143Z,102454.69
2022-08-07T20:37:29.271Z,102462.72
2022-08-07T20:40:02.394Z,102462.78
2022-08-07T20:42:35.311Z,102461.03
2022-08-07T20:45:32.168Z,102459.31
2022-08-07T20:47:58.742Z,102452.25
2022-08-07T20:50:30.370Z,102457.63
2022-08-07T20:53:00.136Z,102458.50
2022-08-07T20:55:32.135Z,102458.53
2022-08-07T20:58:08.977Z,102452.38
2022-08-07T21:00:49.944Z,102459.50
2022-08-07T21:03:23.013Z,102456.84
2022-08-07T21:06:00.866Z,102458.66
2022-08-07T21:08:38.189Z,102458.69
2022-08-07T21:11:14.160Z,102463.13
2022-08-07T21:14:16.547Z,102466.72
2022-08-07T21:16:56.079Z,102461.44
2022-08-07T21:19:32.370Z,102454.34
2022-08-07T21:22:19.255Z,102462.34
2022-08-07T21:25:12.264Z,102456.16
2022-08-07T21:28:01.745Z,102458.81
2022-08-07T21:30:41.732Z,102464.16
2022-08-07T21:33:18.491Z,102462.38
2022-08-07T21:36:06.003Z,102462.38
2022-08-07T21:38:54.947Z,102466.81
2022-08-07T21:41:37.693Z,102465.03
2022-08-07T21:44:29.998Z,102467.72
2022-08-07T21:47:07.502Z,102457.09
2022-08-07T21:50:02.262Z,102458.84
2022-08-07T21:52:43.900Z,102466.81
2022-08-07T21:55:28.127Z,102460.63
2022-08-07T21:58:30.440Z,102462.41
2022-08-07T22:01:14.038Z,102465.94
2022-08-07T22:03:48.588Z,102480.94
2022-08-07T22:06:30.307Z,102473.88
2022-08-07T22:09:07.259Z,102480.94
2022-08-07T22:12:05.935Z,102485.38
2022-08-07T22:14:38.538Z,102483.59
2022-08-07T22:17:38.855Z,102488.00
2022-08-07T22:20:23.023Z,102483.59
2022-08-07T22:22:57.987Z,102486.25
2022-08-07T22:25:38.950Z,102481.78
2022-08-07T22:28:31.464Z,102487.09
2022-08-07T22:31:09.716Z,102487.97
2022-08-07T22:33:56.350Z,102487.09
2022-08-07T22:36:38.586Z,102484.44
2022-08-07T22:39:23.396Z,102484.41
2022-08-07T22:42:18.996Z,102487.06
2022-08-07T22:45:02.469Z,102488.84
2022-08-07T22:48:31.811Z,102497.63
2022-08-07T22:51:23.257Z,102492.31
2022-08-07T22:54:09.532Z,102515.25
2022-08-07T22:56:53.497Z,102512.59
2022-08-07T22:59:51.877Z,102504.59
2022-08-07T23:03:02.727Z,102500.16
2022-08-07T23:06:15.277Z,102500.13
2022-08-07T23:10:04.288Z,102501.00
2022-08-07T23:12:07.168Z,102494.81
2022-08-07T23:14:48.952Z,102495.69
2022-08-07T23:17:45.193Z,102486.88
2022-08-07T23:20:40.754Z,102484.22
2022-08-07T23:24:11.149Z,102483.28
2022-08-07T23:26:54.853Z,102484.13
2022-08-07T23:30:39.253Z,102486.75
2022-08-07T23:34:35.635Z,102488.50
2022-08-07T23:36:22.966Z,102495.56
2022-08-07T23:39:08.731Z,102482.34
2022-08-07T23:42:04.140Z,102490.25
2022-08-07T23:45:02.962Z,102485.81
2022-08-07T23:48:01.953Z,102496.34
2022-08-07T23:50:38.070Z,102496.34
2022-08-07T23:53:26.711Z,102491.94
2022-08-07T23:56:24.599Z,102489.28
2022-08-07T23:59:10.960Z,102496.31
